sensor_id;sensor_type;location;lat;lon;timestamp;pressure;altitude;pressure_sealevel;temperature;humidity
62111;BME280;48102;47.526;19.072;2024-03-25T04:40:40;99495.63;;;5.92;100.00
62111;BME280;48102;47.526;19.072;2024-03-25T04:43:42;99495.63;;;5.92;100.00
62111;BME280;48102;47.526;19.072;2024-03-25T04:46:44;99494.50;;;5.57;100.00
62111;BME280;48102;47.526;19.072;2024-03-25T04:49:46;99497.81;;;5.61;100.00
62111;BME280;48102;47.526;19.072;2024-03-25T04:52:48;99501.22;;;5.63;100.00
62111;BME280;48102;47.526;19.072;2024-03-25T04:55:50;99501.81;;;5.69;100.00
62111;BME280;48102;47.526;19.072;2024-03-25T04:58:52;99508.28;;;5.81;100.00
62111;BME280;48102;47.526;19.072;2024-03-25T05:01:55;99516.62;;;5.89;100.00
62111;BME280;48102;47.526;19.072;2024-03-25T05:04:57;99514.78;;;5.93;100.00
62111;BME280;48102;47.526;19.072;2024-03-25T05:07:59;99524.94;;;5.99;100.00
62111;BME280;48102;47.526;19.072;2024-03-25T05:11:01;99519.66;;;6.00;100.00
62111;BME280;48102;47.526;19.072;2024-03-25T05:14:03;99523.88;;;6.03;100.00
62111;BME280;48102;47.526;19.072;2024-03-25T05:17:04;99521.22;;;6.05;100.00
62111;BME280;48102;47.526;19.072;2024-03-25T05:20:10;99521.41;;;6.00;100.00
62111;BME280;48102;47.526;19.072;2024-03-25T05:23:12;99530.75;;;6.06;100.00
62111;BME280;48102;47.526;19.072;2024-03-25T05:26:16;99539.91;;;6.16;100.00
62111;BME280;48102;47.526;19.072;2024-03-25T05:29:18;99537.19;;;6.17;100.00
62111;BME280;48102;47.526;19.072;2024-03-25T05:32:20;99545.50;;;6.27;100.00
62111;BME280;48102;47.526;19.072;2024-03-25T05:35:23;99548.12;;;6.27;100.00
62111;BME280;48102;47.526;19.072;2024-03-25T05:38:25;99558.59;;;6.27;100.00
62111;BME280;48102;47.526;19.072;2024-03-25T05:41:27;99556.88;;;6.26;100.00
62111;BME280;48102;47.526;19.072;2024-03-25T05:44:29;99563.62;;;6.32;100.00
62111;BME280;48102;47.526;19.072;2024-03-25T05:47:31;99563.03;;;6.25;100.00
62111;BME280;48102;47.526;19.072;2024-03-25T05:50:34;99560.56;;;6.22;100.00
62111;BME280;48102;47.526;19.072;2024-03-25T05:53:36;99559.84;;;6.18;100.00
62111;BME280;48102;47.526;19.072;2024-03-25T05:56:40;99560.06;;;6.14;100.00
62111;BME280;48102;47.526;19.072;2024-03-25T05:59:42;99567.63;;;5.99;100.00
62111;BME280;48102;47.526;19.072;2024-03-25T06:02:44;99566.13;;;5.94;100.00
62111;BME280;48102;47.526;19.072;2024-03-25T06:05:47;99570.44;;;5.95;100.00
62111;BME280;48102;47.526;19.072;2024-03-25T06:08:49;99568.47;;;6.00;100.00
62111;BME280;48102;47.526;19.072;2024-03-25T06:11:52;99563.97;;;6.03;100.00
62111;BME280;48102;47.526;19.072;2024-03-25T06:14:54;99566.47;;;6.25;100.00
62111;BME280;48102;47.526;19.072;2024-03-25T06:17:56;99561.13;;;6.47;100.00
62111;BME280;48102;47.526;19.072;2024-03-25T06:20:58;99566.03;;;6.74;100.00
62111;BME280;48102;47.526;19.072;2024-03-25T06:24:00;99570.91;;;7.00;100.00
62111;BME280;48102;47.526;19.072;2024-03-25T06:27:02;99568.41;;;6.97;100.00
62111;BME280;48102;47.526;19.072;2024-03-25T06:30:06;99568.22;;;6.83;100.00
62111;BME280;48102;47.526;19.072;2024-03-25T06:33:26;99569.78;;;6.87;100.00
62111;BME280;48102;47.526;19.072;2024-03-25T06:36:48;99575.41;;;7.16;100.00
62111;BME280;48102;47.526;19.072;2024-03-25T06:39:49;99578.28;;;7.46;100.00
62111;BME280;48102;47.526;19.072;2024-03-25T06:42:52;99576.75;;;7.76;100.00
62111;BME280;48102;47.526;19.072;2024-03-25T06:45:54;99583.84;;;8.09;97.67
62111;BME280;48102;47.526;19.072;2024-03-25T06:48:56;99581.34;;;8.41;95.00
62111;BME280;48102;47.526;19.072;2024-03-25T06:51:58;99587.22;;;8.62;93.88
62111;BME280;48102;47.526;19.072;2024-03-25T06:55:01;99579.56;;;8.90;92.78
62111;BME280;48102;47.526;19.072;2024-03-25T06:58:02;99593.53;;;8.91;90.64
62111;BME280;48102;47.526;19.072;2024-03-25T07:01:09;99596.06;;;8.92;91.12
62111;BME280;48102;47.526;19.072;2024-03-25T07:04:13;99593.88;;;9.00;89.52
62111;BME280;48102;47.526;19.072;2024-03-25T07:07:15;99598.88;;;9.67;87.64
62111;BME280;48102;47.526;19.072;2024-03-25T07:10:17;99596.59;;;9.91;84.75
62111;BME280;48102;47.526;19.072;2024-03-25T07:13:22;99597.09;;;9.67;90.81
62111;BME280;48102;47.526;19.072;2024-03-25T07:16:24;99587.63;;;9.49;89.90
62111;BME280;48102;47.526;19.072;2024-03-25T07:19:27;99599.28;;;9.29;99.96
62111;BME280;48102;47.526;19.072;2024-03-25T07:22:28;99599.00;;;9.79;92.70
62111;BME280;48102;47.526;19.072;2024-03-25T07:25:31;99599.00;;;10.24;80.98
62111;BME280;48102;47.526;19.072;2024-03-25T07:28:33;99604.78;;;10.59;74.88
62111;BME280;48102;47.526;19.072;2024-03-25T07:31:35;99593.00;;;10.93;75.31
62111;BME280;48102;47.526;19.072;2024-03-25T07:34:37;99601.00;;;11.33;68.06
62111;BME280;48102;47.526;19.072;2024-03-25T07:37:41;99603.44;;;11.36;69.84
62111;BME280;48102;47.526;19.072;2024-03-25T07:40:43;99604.72;;;11.16;66.97
62111;BME280;48102;47.526;19.072;2024-03-25T07:43:45;99607.69;;;10.69;72.93
62111;BME280;48102;47.526;19.072;2024-03-25T07:46:47;99602.91;;;10.33;75.27
62111;BME280;48102;47.526;19.072;2024-03-25T07:49:49;99611.50;;;10.20;74.23
62111;BME280;48102;47.526;19.072;2024-03-25T07:52:51;99614.00;;;9.93;72.03
62111;BME280;48102;47.526;19.072;2024-03-25T07:55:53;99617.28;;;9.67;75.20
62111;BME280;48102;47.526;19.072;2024-03-25T07:58:55;99618.75;;;9.87;72.28
62111;BME280;48102;47.526;19.072;2024-03-25T08:01:57;99606.25;;;9.76;72.72
62111;BME280;48102;47.526;19.072;2024-03-25T08:04:59;99612.09;;;9.81;71.20
62111;BME280;48102;47.526;19.072;2024-03-25T08:08:01;99614.06;;;9.92;73.54
62111;BME280;48102;47.526;19.072;2024-03-25T08:11:03;99609.78;;;10.05;71.57
62111;BME280;48102;47.526;19.072;2024-03-25T08:14:05;99618.88;;;10.44;69.46
62111;BME280;48102;47.526;19.072;2024-03-25T08:17:09;99618.16;;;10.56;66.16
62111;BME280;48102;47.526;19.072;2024-03-25T08:20:11;99634.34;;;10.50;65.51
62111;BME280;48102;47.526;19.072;2024-03-25T08:23:14;99625.69;;;10.62;67.92
62111;BME280;48102;47.526;19.072;2024-03-25T08:26:16;99621.44;;;10.45;65.35
62111;BME280;48102;47.526;19.072;2024-03-25T08:29:19;99614.03;;;10.08;66.96
62111;BME280;48102;47.526;19.072;2024-03-25T08:32:21;99620.69;;;10.43;69.35
62111;BME280;48102;47.526;19.072;2024-03-25T08:35:23;99619.72;;;11.01;64.81
62111;BME280;48102;47.526;19.072;2024-03-25T08:38:25;99618.84;;;11.69;62.66
62111;BME280;48102;47.526;19.072;2024-03-25T08:41:27;99622.69;;;12.30;60.36
62111;BME280;48102;47.526;19.072;2024-03-25T08:44:29;99617.78;;;12.12;59.27
62111;BME280;48102;47.526;19.072;2024-03-25T08:47:31;99614.84;;;11.76;58.04
62111;BME280;48102;47.526;19.072;2024-03-25T08:50:33;99617.69;;;11.73;61.02
62111;BME280;48102;47.526;19.072;2024-03-25T08:53:36;99601.91;;;11.59;59.78
62111;BME280;48102;47.526;19.072;2024-03-25T08:56:38;99607.41;;;11.56;58.28
62111;BME280;48102;47.526;19.072;2024-03-25T08:59:40;99604.81;;;11.42;59.48
62111;BME280;48102;47.526;19.072;2024-03-25T09:02:42;99609.72;;;11.61;59.78
62111;BME280;48102;47.526;19.072;2024-03-25T09:05:45;99615.00;;;11.61;59.56
62111;BME280;48102;47.526;19.072;2024-03-25T09:08:48;99614.31;;;11.71;58.48
62111;BME280;48102;47.526;19.072;2024-03-25T09:12:09;99612.41;;;12.00;56.18
62111;BME280;48102;47.526;19.072;2024-03-25T09:15:10;99604.59;;;12.50;54.96
62111;BME280;48102;47.526;19.072;2024-03-25T09:18:12;99606.59;;;12.46;54.31
62111;BME280;48102;47.526;19.072;2024-03-25T09:21:15;99602.47;;;12.17;54.26
62111;BME280;48102;47.526;19.072;2024-03-25T09:24:17;99594.34;;;12.58;55.53
62111;BME280;48102;47.526;19.072;2024-03-25T09:27:20;99596.69;;;12.99;54.19
62111;BME280;48102;47.526;19.072;2024-03-25T09:30:22;99594.00;;;13.49;53.36
62111;BME280;48102;47.526;19.072;2024-03-25T09:33:25;99599.59;;;12.84;51.87
62111;BME280;48102;47.526;19.072;2024-03-25T09:36:27;99606.81;;;12.05;54.59
62111;BME280;48102;47.526;19.072;2024-03-25T09:39:31;99605.22;;;12.15;60.92
62111;BME280;48102;47.526;19.072;2024-03-25T09:42:40;99607.88;;;12.15;60.77
62111;BME280;48102;47.526;19.072;2024-03-25T09:45:44;99605.59;;;11.56;60.42
62111;BME280;48102;47.526;19.072;2024-03-25T09:48:52;99610.59;;;11.34;60.41
62111;BME280;48102;47.526;19.072;2024-03-25T09:51:54;99600.94;;;11.47;58.43
62111;BME280;48102;47.526;19.072;2024-03-25T09:54:56;99610.50;;;11.63;58.68
62111;BME280;48102;47.526;19.072;2024-03-25T09:57:58;99612.37;;;11.88;56.29
62111;BME280;48102;47.526;19.072;2024-03-25T10:01:01;99615.34;;;11.83;55.94
62111;BME280;48102;47.526;19.072;2024-03-25T10:04:03;99607.81;;;11.50;54.77
62111;BME280;48102;47.526;19.072;2024-03-25T10:07:05;99609.59;;;11.49;55.89
62111;BME280;48102;47.526;19.072;2024-03-25T10:10:08;99618.63;;;11.72;55.29
62111;BME280;48102;47.526;19.072;2024-03-25T10:13:10;99607.34;;;12.10;52.18
62111;BME280;48102;47.526;19.072;2024-03-25T10:16:12;99590.66;;;12.22;51.38
62111;BME280;48102;47.526;19.072;2024-03-25T10:19:14;99599.13;;;12.40;51.01
62111;BME280;48102;47.526;19.072;2024-03-25T10:22:16;99598.81;;;12.45;50.65
62111;BME280;48102;47.526;19.072;2024-03-25T10:28:29;99594.97;;;12.62;49.27
62111;BME280;48102;47.526;19.072;2024-03-25T10:31:31;99577.03;;;12.91;49.89
62111;BME280;48102;47.526;19.072;2024-03-25T10:34:33;99587.38;;;13.06;47.42
62111;BME280;48102;47.526;19.072;2024-03-25T10:37:35;99582.34;;;13.27;47.07
62111;BME280;48102;47.526;19.072;2024-03-25T10:40:38;99586.69;;;13.52;45.45
62111;BME280;48102;47.526;19.072;2024-03-25T10:43:41;99581.63;;;13.49;45.71
62111;BME280;48102;47.526;19.072;2024-03-25T10:46:44;99580.56;;;13.15;46.36
62111;BME280;48102;47.526;19.072;2024-03-25T10:50:03;99598.91;;;13.42;47.74
62111;BME280;48102;47.526;19.072;2024-03-25T10:53:08;99577.91;;;13.52;46.44
62111;BME280;48102;47.526;19.072;2024-03-25T10:56:13;99596.09;;;13.33;46.71
62111;BME280;48102;47.526;19.072;2024-03-25T10:59:17;99589.50;;;13.01;47.32
62111;BME280;48102;47.526;19.072;2024-03-25T11:02:20;99593.84;;;12.90;47.86
62111;BME280;48102;47.526;19.072;2024-03-25T11:05:22;99587.44;;;13.30;47.69
62111;BME280;48102;47.526;19.072;2024-03-25T11:08:31;99583.97;;;14.00;48.60
62111;BME280;48102;47.526;19.072;2024-03-25T11:11:33;99581.19;;;14.60;45.32
62111;BME280;48102;47.526;19.072;2024-03-25T11:14:35;99583.88;;;14.24;45.13
62111;BME280;48102;47.526;19.072;2024-03-25T11:17:48;99586.28;;;13.46;46.39
62111;BME280;48102;47.526;19.072;2024-03-25T11:21:01;99597.31;;;12.66;53.89
62111;BME280;48102;47.526;19.072;2024-03-25T11:24:06;99612.87;;;10.70;74.77
62111;BME280;48102;47.526;19.072;2024-03-25T11:27:09;99599.63;;;9.99;99.31
62111;BME280;48102;47.526;19.072;2024-03-25T11:30:12;99589.81;;;9.87;100.00
62111;BME280;48102;47.526;19.072;2024-03-25T11:33:14;99592.72;;;9.82;100.00
62111;BME280;48102;47.526;19.072;2024-03-25T11:36:17;99581.03;;;10.02;98.81
62111;BME280;48102;47.526;19.072;2024-03-25T11:39:26;99584.06;;;10.82;96.59
62111;BME280;48102;47.526;19.072;2024-03-25T11:42:30;99612.87;;;11.26;83.91
62111;BME280;48102;47.526;19.072;2024-03-25T11:45:32;99606.16;;;11.35;68.84
62111;BME280;48102;47.526;19.072;2024-03-25T11:48:34;99606.38;;;10.76;63.11
62111;BME280;48102;47.526;19.072;2024-03-25T11:51:36;99606.94;;;10.81;64.56
62111;BME280;48102;47.526;19.072;2024-03-25T11:54:42;99596.28;;;10.83;58.19
62111;BME280;48102;47.526;19.072;2024-03-25T11:57:44;99606.00;;;11.23;67.96
62111;BME280;48102;47.526;19.072;2024-03-25T12:00:47;99595.91;;;11.70;60.44
62111;BME280;48102;47.526;19.072;2024-03-25T12:04:12;99597.94;;;12.06;56.48
62111;BME280;48102;47.526;19.072;2024-03-25T12:07:14;99596.66;;;11.99;57.01
62111;BME280;48102;47.526;19.072;2024-03-25T12:10:17;99591.72;;;12.45;51.61
62111;BME280;48102;47.526;19.072;2024-03-25T12:13:38;99600.44;;;13.21;53.87
62111;BME280;48102;47.526;19.072;2024-03-25T12:16:44;99583.00;;;13.42;52.47
62111;BME280;48102;47.526;19.072;2024-03-25T12:20:19;99594.56;;;13.04;55.87
62111;BME280;48102;47.526;19.072;2024-03-25T12:23:21;99615.38;;;12.47;55.71
62111;BME280;48102;47.526;19.072;2024-03-25T12:26:23;99615.47;;;12.20;57.64
62111;BME280;48102;47.526;19.072;2024-03-25T12:29:25;99621.28;;;11.72;71.42
62111;BME280;48102;47.526;19.072;2024-03-25T12:35:47;99621.72;;;11.79;63.35
62111;BME280;48102;47.526;19.072;2024-03-25T12:38:55;99617.03;;;12.73;64.52
62111;BME280;48102;47.526;19.072;2024-03-25T12:41:58;99608.97;;;13.37;56.75
62111;BME280;48102;47.526;19.072;2024-03-25T12:45:00;99615.84;;;14.34;55.46
62111;BME280;48102;47.526;19.072;2024-03-25T12:48:02;99611.47;;;14.22;52.97
62111;BME280;48102;47.526;19.072;2024-03-25T12:51:04;99610.41;;;13.89;54.85
62111;BME280;48102;47.526;19.072;2024-03-25T12:54:06;99616.09;;;13.61;52.61
62111;BME280;48102;47.526;19.072;2024-03-25T12:57:08;99621.94;;;12.67;52.85
62111;BME280;48102;47.526;19.072;2024-03-25T13:00:11;99623.12;;;11.30;58.44
62111;BME280;48102;47.526;19.072;2024-03-25T13:06:28;99624.44;;;15.92;51.05
62111;BME280;48102;47.526;19.072;2024-03-25T13:09:30;99624.44;;;15.92;51.05
62111;BME280;48102;47.526;19.072;2024-03-25T13:12:32;99629.16;;;19.60;40.26
62111;BME280;48102;47.526;19.072;2024-03-25T13:15:34;99629.41;;;20.98;36.96
62111;BME280;48102;47.526;19.072;2024-03-25T13:18:36;99628.28;;;17.52;41.71
62111;BME280;48102;47.526;19.072;2024-03-25T13:21:39;99628.41;;;14.88;44.88
62111;BME280;48102;47.526;19.072;2024-03-25T13:24:41;99616.97;;;13.24;49.80
62111;BME280;48102;47.526;19.072;2024-03-25T13:27:43;99614.34;;;12.49;52.59
62111;BME280;48102;47.526;19.072;2024-03-25T13:30:45;99622.03;;;12.01;52.57
62111;BME280;48102;47.526;19.072;2024-03-25T13:33:47;99624.44;;;14.60;51.91
62111;BME280;48102;47.526;19.072;2024-03-25T13:36:49;99619.34;;;20.92;38.42
62111;BME280;48102;47.526;19.072;2024-03-25T13:39:52;99616.28;;;20.52;35.75
62111;BME280;48102;47.526;19.072;2024-03-25T13:42:54;99615.75;;;16.73;41.47
62111;BME280;48102;47.526;19.072;2024-03-25T13:45:56;99617.09;;;14.52;47.14
62111;BME280;48102;47.526;19.072;2024-03-25T13:48:58;99620.03;;;13.31;48.75
62111;BME280;48102;47.526;19.072;2024-03-25T13:52:00;99627.22;;;12.16;51.91
62111;BME280;48102;47.526;19.072;2024-03-25T13:55:03;99626.63;;;11.85;54.07
62111;BME280;48102;47.526;19.072;2024-03-25T13:58:05;99630.69;;;11.76;52.85
62111;BME280;48102;47.526;19.072;2024-03-25T14:01:08;99621.41;;;12.49;53.89
62111;BME280;48102;47.526;19.072;2024-03-25T14:04:11;99627.72;;;16.37;45.21
62111;BME280;48102;47.526;19.072;2024-03-25T14:07:13;99613.56;;;21.88;35.60
62111;BME280;48102;47.526;19.072;2024-03-25T14:10:15;99611.84;;;21.03;34.62
62111;BME280;48102;47.526;19.072;2024-03-25T14:13:18;99609.88;;;21.14;33.84
62111;BME280;48102;47.526;19.072;2024-03-25T14:16:20;99610.88;;;21.13;34.33
62111;BME280;48102;47.526;19.072;2024-03-25T14:19:25;99610.72;;;21.97;32.88
62111;BME280;48102;47.526;19.072;2024-03-25T14:22:27;99605.00;;;19.61;34.80
62111;BME280;48102;47.526;19.072;2024-03-25T14:25:29;99605.19;;;17.72;36.09
62111;BME280;48102;47.526;19.072;2024-03-25T14:28:31;99605.78;;;17.75;38.08
62111;BME280;48102;47.526;19.072;2024-03-25T14:31:34;99610.94;;;24.09;29.31
62111;BME280;48102;47.526;19.072;2024-03-25T14:34:36;99605.31;;;28.94;24.75
62111;BME280;48102;47.526;19.072;2024-03-25T14:37:37;99599.09;;;31.92;20.98
62111;BME280;48102;47.526;19.072;2024-03-25T14:40:40;99583.34;;;33.00;19.17
62111;BME280;48102;47.526;19.072;2024-03-25T14:43:41;99586.31;;;33.84;19.45
62111;BME280;48102;47.526;19.072;2024-03-25T14:46:44;99584.13;;;33.52;18.87
62111;BME280;48102;47.526;19.072;2024-03-25T14:49:46;99579.88;;;34.24;18.67
62111;BME280;48102;47.526;19.072;2024-03-25T14:52:47;99587.78;;;33.29;19.34
62111;BME280;48102;47.526;19.072;2024-03-25T14:55:49;99578.91;;;31.51;20.50
62111;BME280;48102;47.526;19.072;2024-03-25T14:58:53;99575.78;;;31.17;20.40
62111;BME280;48102;47.526;19.072;2024-03-25T15:01:59;99579.16;;;29.89;21.59
62111;BME280;48102;47.526;19.072;2024-03-25T15:05:02;99576.94;;;30.91;21.12
62111;BME280;48102;47.526;19.072;2024-03-25T15:08:07;99573.94;;;33.48;20.46
62111;BME280;48102;47.526;19.072;2024-03-25T15:11:12;99569.75;;;34.80;19.20
62111;BME280;48102;47.526;19.072;2024-03-25T15:14:14;99576.69;;;36.12;18.28
62111;BME280;48102;47.526;19.072;2024-03-25T15:17:16;99590.25;;;36.66;17.83
62111;BME280;48102;47.526;19.072;2024-03-25T15:20:18;99582.19;;;36.97;17.68
62111;BME280;48102;47.526;19.072;2024-03-25T15:23:20;99580.88;;;37.10;17.43
62111;BME280;48102;47.526;19.072;2024-03-25T15:26:21;99582.59;;;35.67;17.94
62111;BME280;48102;47.526;19.072;2024-03-25T15:29:24;99575.81;;;34.82;18.67
62111;BME280;48102;47.526;19.072;2024-03-25T15:32:26;99581.16;;;33.54;19.86
62111;BME280;48102;47.526;19.072;2024-03-25T15:35:28;99577.97;;;31.27;22.18
62111;BME280;48102;47.526;19.072;2024-03-25T15:38:30;99567.53;;;30.76;21.83
62111;BME280;48102;47.526;19.072;2024-03-25T15:41:32;99567.53;;;30.32;22.84
62111;BME280;48102;47.526;19.072;2024-03-25T15:44:34;99562.31;;;30.06;22.24
62111;BME280;48102;47.526;19.072;2024-03-25T15:47:35;99576.03;;;29.16;22.62
62111;BME280;48102;47.526;19.072;2024-03-25T15:50:38;99578.91;;;29.28;22.96
62111;BME280;48102;47.526;19.072;2024-03-25T15:53:40;99572.47;;;26.40;25.03
62111;BME280;48102;47.526;19.072;2024-03-25T15:56:42;99574.00;;;23.25;28.56
62111;BME280;48102;47.526;19.072;2024-03-25T15:59:44;99589.63;;;19.81;33.04
62111;BME280;48102;47.526;19.072;2024-03-25T16:02:46;99595.88;;;16.56;39.67
62111;BME280;48102;47.526;19.072;2024-03-25T16:05:50;99596.09;;;14.72;44.09
62111;BME280;48102;47.526;19.072;2024-03-25T16:08:52;99601.25;;;13.58;47.31
62111;BME280;48102;47.526;19.072;2024-03-25T16:11:54;99600.53;;;12.95;48.92
62111;BME280;48102;47.526;19.072;2024-03-25T16:14:59;99594.88;;;12.38;50.57
62111;BME280;48102;47.526;19.072;2024-03-25T16:18:01;99599.22;;;12.00;51.91
62111;BME280;48102;47.526;19.072;2024-03-25T16:21:16;99589.09;;;11.40;54.41
62111;BME280;48102;47.526;19.072;2024-03-25T16:24:20;99584.13;;;10.94;57.51
62111;BME280;48102;47.526;19.072;2024-03-25T16:27:22;99595.84;;;10.47;60.91
62111;BME280;48102;47.526;19.072;2024-03-25T16:30:26;99590.44;;;10.20;63.63
62111;BME280;48102;47.526;19.072;2024-03-25T16:33:27;99592.28;;;10.04;68.03
62111;BME280;48102;47.526;19.072;2024-03-25T16:36:29;99592.34;;;9.88;70.26
